createdAt,value
2022-09-09T00:01:31.623Z,21.00
2022-09-09T00:04:09.017Z,21.02
2022-09-09T00:06:48.795Z,21.00
2022-09-09T00:09:21.314Z,21.02
2022-09-09T00:11:59.197Z,21.01
2022-09-09T00:14:41.030Z,20.96
2022-09-09T00:17:16.855Z,20.97
2022-09-09T00:19:57.025Z,20.97
2022-09-09T00:22:29.237Z,20.95
2022-09-09T00:25:01.572Z,20.91
2022-09-09T00:27:36.709Z,20.88
2022-09-09T00:30:20.788Z,20.87
2022-09-09T00:32:52.131Z,20.90
2022-09-09T00:35:27.987Z,20.89
2022-09-09T00:38:03.831Z,20.85
2022-09-09T00:40:38.031Z,20.82
2022-09-09T00:43:28.621Z,20.82
2022-09-09T00:46:33.625Z,20.83
2022-09-09T00:49:10.324Z,20.81
2022-09-09T00:51:52.402Z,20.78
2022-09-09T00:54:38.952Z,20.76
2022-09-09T00:57:18.311Z,20.75
2022-09-09T00:59:51.762Z,20.74
2022-09-09T01:02:31.848Z,20.73
2022-09-09T01:05:08.909Z,20.69
2022-09-09T01:07:41.296Z,20.68
2022-09-09T01:10:18.879Z,20.67
2022-09-09T01:12:51.106Z,20.67
2022-09-09T01:15:29.563Z,20.64
2022-09-09T01:18:05.048Z,20.60
2022-09-09T01:20:48.652Z,20.59
2022-09-09T01:23:40.659Z,20.60
2022-09-09T01:26:34.307Z,20.57
2022-09-09T01:29:11.755Z,20.54
2022-09-09T01:31:46.276Z,20.49
2022-09-09T01:34:17.169Z,20.48
2022-09-09T01:36:54.119Z,20.44
2022-09-09T01:39:24.606Z,20.40
2022-09-09T01:42:07.229Z,20.40
2022-09-09T01:44:39.492Z,20.39
2022-09-09T01:47:10.318Z,20.39
2022-09-09T01:49:55.694Z,20.38
2022-09-09T01:52:29.262Z,20.37
2022-09-09T01:54:59.420Z,20.36
2022-09-09T01:57:47.382Z,20.37
2022-09-09T02:00:19.172Z,20.37
2022-09-09T02:03:04.390Z,20.36
2022-09-09T02:05:43.867Z,20.35
2022-09-09T02:08:27.293Z,20.33
2022-09-09T02:11:09.400Z,20.29
2022-09-09T02:14:00.415Z,20.28
2022-09-09T02:16:37.757Z,20.27
2022-09-09T02:19:13.837Z,20.26
2022-09-09T02:22:01.696Z,20.25
2022-09-09T02:24:35.383Z,20.25
2022-09-09T02:27:22.749Z,20.21
2022-09-09T02:29:57.379Z,20.21
2022-09-09T02:32:40.624Z,20.17
2022-09-09T02:35:15.941Z,20.16
2022-09-09T02:37:51.105Z,20.16
2022-09-09T02:40:22.437Z,20.16
2022-09-09T02:43:01.140Z,20.17
2022-09-09T02:45:45.015Z,20.19
2022-09-09T02:48:24.325Z,20.18
2022-09-09T02:51:03.984Z,20.15
2022-09-09T02:53:43.462Z,20.13
2022-09-09T02:56:19.704Z,20.11
2022-09-09T02:58:52.949Z,20.10
2022-09-09T03:01:25.906Z,20.09
2022-09-09T03:03:56.129Z,20.08
2022-09-09T03:06:28.344Z,20.10
2022-09-09T03:09:06.615Z,20.12
2022-09-09T03:11:36.693Z,20.12
2022-09-09T03:14:06.911Z,20.12
2022-09-09T03:16:39.449Z,20.07
2022-09-09T03:19:10.436Z,20.05
2022-09-09T03:21:40.179Z,20.03
2022-09-09T03:24:10.753Z,20.04
2022-09-09T03:26:41.224Z,20.03
2022-09-09T03:29:16.589Z,19.99
2022-09-09T03:31:49.738Z,19.96
2022-09-09T03:34:19.625Z,19.96
2022-09-09T03:36:49.875Z,19.94
2022-09-09T03:39:19.991Z,19.94
2022-09-09T03:41:50.241Z,19.92
2022-09-09T03:44:21.094Z,19.91
2022-09-09T03:46:53.474Z,19.89
2022-09-09T03:49:23.857Z,19.92
2022-09-09T03:51:53.976Z,19.92
2022-09-09T03:54:24.073Z,19.90
2022-09-09T03:56:53.960Z,19.92
2022-09-09T03:59:29.267Z,19.93
2022-09-09T04:02:03.465Z,19.93
2022-09-09T04:04:33.364Z,19.92
2022-09-09T04:07:03.225Z,19.92
2022-09-09T04:09:33.258Z,19.92
2022-09-09T04:12:04.471Z,19.92
2022-09-09T04:14:35.566Z,19.93
2022-09-09T04:17:09.852Z,19.92
2022-09-09T04:19:40.630Z,19.93
2022-09-09T04:22:11.408Z,19.93
2022-09-09T04:24:48.536Z,19.89
2022-09-09T04:27:19.410Z,19.87
2022-09-09T04:29:49.433Z,19.86
2022-09-09T04:32:22.818Z,19.83
2022-09-09T04:34:52.612Z,19.85
2022-09-09T04:37:22.653Z,19.84
2022-09-09T04:39:52.777Z,19.82
2022-09-09T04:42:22.628Z,19.82
2022-09-09T04:44:52.467Z,19.81
2022-09-09T04:47:24.829Z,19.82
2022-09-09T04:49:55.781Z,19.81
2022-09-09T04:52:25.853Z,19.81
2022-09-09T04:54:55.630Z,19.86
2022-09-09T04:57:25.468Z,19.91
2022-09-09T04:59:55.243Z,19.96
2022-09-09T05:02:31.466Z,20.02
2022-09-09T05:05:02.003Z,20.08
2022-09-09T05:07:32.387Z,20.16
2022-09-09T05:10:05.696Z,20.18
2022-09-09T05:12:36.048Z,20.24
2022-09-09T05:15:06.609Z,20.27
2022-09-09T05:17:39.399Z,20.33
2022-09-09T05:20:14.488Z,20.41
2022-09-09T05:22:46.601Z,20.50
2022-09-09T05:25:16.653Z,20.57
2022-09-09T05:27:46.393Z,20.61
2022-09-09T05:30:16.878Z,20.66
2022-09-09T05:32:49.938Z,20.71
2022-09-09T05:35:21.759Z,20.75
2022-09-09T05:37:51.560Z,20.79
2022-09-09T05:40:22.612Z,20.81
2022-09-09T05:42:54.586Z,20.86
2022-09-09T05:45:25.065Z,20.94
2022-09-09T05:48:02.514Z,20.97
2022-09-09T05:50:33.508Z,21.08
2022-09-09T05:53:04.635Z,21.18
2022-09-09T05:55:34.690Z,21.27
2022-09-09T05:58:05.288Z,21.34
2022-09-09T06:00:35.489Z,21.40
2022-09-09T06:03:08.786Z,21.49
2022-09-09T06:05:39.232Z,21.58
2022-09-09T06:08:09.103Z,21.57
2022-09-09T06:10:38.974Z,21.56
2022-09-09T06:13:11.070Z,21.66
2022-09-09T06:15:42.251Z,21.76
2022-09-09T06:18:14.788Z,21.85
2022-09-09T06:20:44.670Z,21.91
2022-09-09T06:23:14.669Z,21.88
2022-09-09T06:25:44.570Z,21.92
2022-09-09T06:28:14.589Z,21.99
2022-09-09T06:30:45.605Z,22.07
2022-09-09T06:33:18.319Z,22.11
2022-09-09T06:35:55.264Z,22.18
2022-09-09T06:38:25.535Z,22.33
2022-09-09T06:40:59.554Z,22.46
2022-09-09T06:43:30.092Z,22.56
2022-09-09T06:46:01.093Z,22.68
2022-09-09T06:48:33.767Z,22.82
2022-09-09T06:51:05.938Z,22.93
2022-09-09T06:53:36.747Z,23.04
2022-09-09T06:56:22.765Z,23.18
2022-09-09T06:58:54.478Z,23.28
2022-09-09T07:01:31.592Z,23.29
2022-09-09T07:04:09.129Z,23.32
2022-09-09T07:06:41.951Z,23.30
2022-09-09T07:09:16.026Z,23.31
2022-09-09T07:11:49.334Z,23.37
2022-09-09T07:14:20.719Z,23.45
2022-09-09T07:16:59.309Z,23.47
2022-09-09T07:19:32.623Z,23.56
2022-09-09T07:22:03.594Z,23.72
2022-09-09T07:24:34.444Z,23.76
2022-09-09T07:27:04.590Z,23.75
2022-09-09T07:29:35.052Z,23.79
2022-09-09T07:32:05.477Z,23.84
2022-09-09T07:34:41.796Z,23.72
2022-09-09T07:37:12.878Z,23.82
2022-09-09T07:39:45.706Z,23.90
2022-09-09T07:42:16.294Z,23.94
2022-09-09T07:44:46.351Z,23.96
2022-09-09T07:47:18.832Z,23.99
2022-09-09T07:49:53.488Z,24.05
2022-09-09T07:52:28.796Z,24.18
2022-09-09T07:55:03.317Z,24.17
2022-09-09T07:57:34.446Z,24.23
2022-09-09T08:00:11.408Z,24.18
2022-09-09T08:02:47.440Z,24.31
2022-09-09T08:05:20.040Z,24.29
2022-09-09T08:07:51.481Z,24.39
2022-09-09T08:10:21.975Z,24.46
2022-09-09T08:13:14.803Z,24.43
2022-09-09T08:15:44.494Z,24.52
2022-09-09T08:18:15.066Z,24.69
2022-09-09T08:20:47.525Z,24.82
2022-09-09T08:23:18.049Z,24.81
2022-09-09T08:25:49.847Z,24.94
2022-09-09T08:28:19.911Z,25.02
2022-09-09T08:30:49.994Z,25.18
2022-09-09T08:33:20.539Z,25.30
2022-09-09T08:35:56.384Z,25.38
2022-09-09T08:38:26.498Z,25.39
2022-09-09T08:41:03.579Z,25.39
2022-09-09T08:43:36.101Z,25.25
2022-09-09T08:46:13.763Z,25.07
2022-09-09T08:48:56.123Z,24.89
2022-09-09T08:51:32.440Z,24.70
2022-09-09T08:54:06.750Z,24.46
2022-09-09T08:56:37.259Z,24.34
2022-09-09T08:59:07.944Z,24.23
2022-09-09T09:01:52.995Z,24.17
2022-09-09T09:04:50.318Z,24.17
2022-09-09T09:07:33.143Z,24.17
2022-09-09T09:10:37.687Z,24.11
2022-09-09T09:13:06.878Z,24.12
2022-09-09T09:15:41.600Z,24.10
2022-09-09T09:18:17.046Z,24.11
2022-09-09T09:20:55.607Z,24.09
2022-09-09T09:23:29.965Z,24.19
2022-09-09T09:26:04.033Z,24.32
2022-09-09T09:28:37.322Z,24.59
2022-09-09T09:31:15.782Z,24.78
2022-09-09T09:33:54.237Z,24.84
2022-09-09T09:36:37.086Z,25.17
2022-09-09T09:42:15.519Z,26.01
2022-09-09T09:44:49.446Z,26.31
2022-09-09T09:47:24.467Z,26.50
2022-09-09T09:50:23.574Z,26.58
2022-09-09T09:53:00.423Z,26.63
2022-09-09T09:55:38.041Z,26.90
2022-09-09T09:58:09.796Z,27.05
2022-09-09T10:00:52.421Z,27.14
2022-09-09T10:03:28.252Z,27.56
2022-09-09T10:05:59.942Z,28.03
2022-09-09T10:08:31.219Z,28.50
2022-09-09T10:11:25.877Z,28.89
2022-09-09T10:14:07.775Z,29.24
2022-09-09T10:16:50.161Z,29.47
2022-09-09T10:19:24.641Z,29.74
2022-09-09T10:22:07.759Z,29.54
2022-09-09T10:25:09.861Z,29.44
2022-09-09T10:27:57.778Z,29.61
2022-09-09T10:30:35.706Z,29.56
2022-09-09T10:33:12.632Z,29.58
2022-09-09T10:35:53.143Z,29.70
2022-09-09T10:38:29.163Z,29.72
2022-09-09T10:41:14.848Z,29.68
2022-09-09T10:44:06.196Z,29.56
2022-09-09T10:46:48.376Z,29.78
2022-09-09T10:49:34.405Z,29.84
2022-09-09T10:52:11.950Z,29.35
2022-09-09T10:55:00.925Z,28.75
2022-09-09T10:57:37.474Z,28.17
2022-09-09T11:00:18.282Z,27.80
2022-09-09T11:02:49.047Z,27.58
2022-09-09T11:05:22.902Z,27.38
2022-09-09T11:07:59.798Z,27.32
2022-09-09T11:10:43.923Z,27.93
2022-09-09T11:13:19.551Z,28.88
2022-09-09T11:15:56.041Z,30.35
2022-09-09T11:18:27.462Z,32.05
2022-09-09T11:21:03.151Z,33.46
2022-09-09T11:23:42.469Z,34.66
2022-09-09T11:26:19.770Z,35.70
2022-09-09T11:29:05.066Z,36.38
2022-09-09T11:32:04.168Z,36.67
2022-09-09T11:34:54.603Z,36.56
2022-09-09T11:37:49.113Z,35.23
2022-09-09T11:40:23.740Z,34.08
2022-09-09T11:43:06.985Z,34.57
2022-09-09T11:45:39.271Z,35.18
2022-09-09T11:48:28.677Z,35.22
2022-09-09T11:51:06.828Z,35.10
2022-09-09T11:53:37.954Z,35.85
2022-09-09T11:56:12.241Z,36.81
2022-09-09T11:58:46.642Z,37.43
2022-09-09T12:01:18.669Z,37.89
2022-09-09T12:03:54.839Z,37.54
2022-09-09T12:06:34.926Z,36.92
2022-09-09T12:09:12.169Z,37.20
2022-09-09T12:11:42.510Z,37.23
2022-09-09T12:14:24.003Z,36.64
2022-09-09T12:16:54.888Z,35.92
2022-09-09T12:19:27.376Z,35.07
2022-09-09T12:22:05.108Z,34.18
2022-09-09T12:24:40.833Z,33.36
2022-09-09T12:27:19.192Z,32.76
2022-09-09T12:29:57.961Z,32.21
2022-09-09T12:32:30.191Z,31.54
2022-09-09T12:35:06.808Z,30.93
2022-09-09T12:37:40.589Z,30.33
2022-09-09T12:40:24.108Z,29.81
2022-09-09T12:42:55.021Z,29.46
2022-09-09T12:45:27.009Z,29.04
2022-09-09T12:48:00.265Z,28.72
2022-09-09T12:50:35.890Z,28.59
2022-09-09T12:53:11.109Z,28.53
2022-09-09T12:55:43.040Z,28.44
2022-09-09T13:10:36.662Z,27.10
2022-09-09T13:13:18.129Z,27.18
2022-09-09T13:15:54.906Z,27.31
2022-09-09T13:18:27.674Z,27.36
2022-09-09T13:20:58.966Z,27.39
2022-09-09T13:23:32.119Z,27.31
2022-09-09T13:26:08.763Z,27.31
2022-09-09T13:28:38.843Z,27.32
2022-09-09T13:31:22.883Z,27.32
2022-09-09T13:33:54.187Z,27.28
2022-09-09T13:36:33.110Z,27.25
2022-09-09T13:39:05.187Z,27.20
2022-09-09T13:41:40.111Z,27.09
2022-09-09T13:44:10.140Z,26.98
2022-09-09T13:46:41.610Z,26.89
2022-09-09T13:49:24.780Z,26.79
2022-09-09T13:51:56.469Z,26.76
2022-09-09T13:54:26.577Z,26.74
2022-09-09T13:56:58.967Z,26.61
2022-09-09T13:59:53.910Z,26.61
2022-09-09T14:02:19.157Z,26.54
2022-09-09T14:04:51.838Z,26.48
2022-09-09T14:07:22.538Z,26.45
2022-09-09T14:09:53.510Z,26.45
2022-09-09T14:12:25.940Z,26.44
2022-09-09T14:14:55.738Z,26.44
2022-09-09T14:17:26.197Z,26.42
2022-09-09T14:19:56.000Z,26.42
2022-09-09T14:22:26.488Z,26.39
2022-09-09T14:24:56.273Z,26.36
2022-09-09T14:27:29.734Z,26.36
2022-09-09T14:30:01.045Z,26.36
2022-09-09T14:32:31.162Z,26.38
2022-09-09T14:35:01.065Z,26.44
2022-09-09T14:37:32.182Z,26.49
2022-09-09T14:40:02.200Z,26.56
2022-09-09T14:42:34.719Z,26.62
2022-09-09T14:45:04.815Z,26.70
2022-09-09T14:47:34.742Z,26.71
2022-09-09T14:50:06.028Z,26.75
2022-09-09T14:52:36.009Z,26.75
2022-09-09T14:55:06.076Z,26.78
2022-09-09T14:57:40.127Z,26.74
2022-09-09T15:00:12.324Z,26.79
2022-09-09T15:02:42.278Z,26.81
2022-09-09T15:05:13.056Z,26.79
2022-09-09T15:07:43.494Z,26.74
2022-09-09T15:10:13.584Z,26.72
2022-09-09T15:12:45.967Z,26.68
2022-09-09T15:15:16.365Z,26.67
2022-09-09T15:17:46.160Z,26.64
2022-09-09T15:20:17.718Z,26.61
2022-09-09T15:22:47.545Z,26.58
2022-09-09T15:25:18.857Z,26.58
2022-09-09T15:27:51.400Z,26.51
2022-09-09T15:30:21.285Z,26.48
2022-09-09T15:32:51.100Z,26.47
2022-09-09T15:35:20.961Z,26.43
2022-09-09T15:37:50.740Z,26.43
2022-09-09T15:40:20.549Z,26.44
2022-09-09T15:42:53.026Z,26.46
2022-09-09T15:45:22.971Z,26.48
2022-09-09T15:47:53.331Z,26.47
2022-09-09T15:50:23.220Z,26.50
2022-09-09T15:52:54.020Z,26.48
2022-09-09T15:55:25.306Z,26.49
2022-09-09T15:57:58.790Z,26.47
2022-09-09T16:00:30.088Z,26.46
2022-09-09T16:02:59.902Z,26.45
2022-09-09T16:05:29.721Z,26.47
2022-09-09T16:07:59.576Z,26.47
2022-09-09T16:10:29.420Z,26.45
2022-09-09T16:13:02.367Z,26.43
2022-09-09T16:15:32.436Z,26.41
2022-09-09T16:18:02.296Z,26.39
2022-09-09T16:20:32.290Z,26.36
2022-09-09T16:23:03.034Z,26.33
2022-09-09T16:25:32.860Z,26.27
2022-09-09T16:28:05.593Z,26.13
2022-09-09T16:30:35.501Z,26.07
2022-09-09T16:33:05.301Z,25.94
2022-09-09T16:35:35.126Z,25.87
2022-09-09T16:38:04.978Z,25.82
2022-09-09T16:40:37.644Z,25.78
2022-09-09T16:43:12.237Z,25.76
2022-09-09T16:45:46.220Z,25.71
2022-09-09T16:48:16.171Z,25.69
2022-09-09T16:50:47.006Z,25.60
2022-09-09T16:53:16.843Z,25.56
2022-09-09T16:55:46.654Z,25.50
2022-09-09T16:58:19.031Z,25.36
2022-09-09T17:00:49.410Z,25.30
2022-09-09T17:03:19.279Z,25.15
2022-09-09T17:05:49.353Z,25.13
2022-09-09T17:08:19.188Z,25.08
2022-09-09T17:10:49.141Z,25.00
2022-09-09T17:13:22.109Z,24.95
2022-09-09T17:15:52.100Z,24.92
2022-09-09T17:18:22.173Z,24.87
2022-09-09T17:20:51.998Z,24.83
2022-09-09T17:23:21.787Z,24.83
2022-09-09T17:26:01.077Z,24.83
2022-09-09T17:28:33.578Z,24.83
2022-09-09T17:31:05.811Z,24.84
2022-09-09T17:33:35.754Z,24.84
2022-09-09T17:36:11.913Z,24.83
2022-09-09T17:38:43.600Z,24.83
2022-09-09T17:41:17.027Z,24.79
2022-09-09T17:43:50.548Z,24.76
2022-09-09T17:46:23.032Z,24.76
2022-09-09T17:48:54.735Z,24.75
2022-09-09T17:51:28.984Z,24.73
2022-09-09T17:54:00.616Z,24.60
2022-09-09T17:56:32.430Z,24.58
2022-09-09T17:59:06.427Z,24.53
2022-09-09T18:01:39.606Z,24.44
2022-09-09T18:04:14.215Z,24.42
2022-09-09T18:06:45.853Z,24.44
2022-09-09T18:09:17.947Z,24.39
2022-09-09T18:11:49.770Z,24.34
2022-09-09T18:14:24.989Z,24.31
2022-09-09T18:16:55.341Z,24.27
2022-09-09T18:19:27.075Z,24.20
2022-09-09T18:22:00.191Z,24.17
2022-09-09T18:24:33.485Z,24.10
2022-09-09T18:27:03.790Z,24.05
2022-09-09T18:29:36.536Z,24.01
2022-09-09T18:32:06.497Z,23.95
2022-09-09T18:34:36.621Z,23.91
2022-09-09T18:37:08.025Z,23.84
2022-09-09T18:39:37.798Z,23.69
2022-09-09T18:42:08.012Z,23.60
2022-09-09T18:44:40.427Z,23.58
2022-09-09T18:47:10.958Z,23.52
2022-09-09T18:49:40.763Z,23.50
2022-09-09T18:52:12.902Z,23.47
2022-09-09T18:54:45.974Z,23.46
2022-09-09T18:57:15.846Z,23.47
2022-09-09T18:59:49.266Z,23.48
2022-09-09T19:02:19.738Z,23.51
2022-09-09T19:04:50.295Z,23.55
2022-09-09T19:07:21.838Z,23.55
2022-09-09T19:09:53.454Z,23.56
2022-09-09T19:12:24.267Z,23.51
2022-09-09T19:14:56.768Z,23.47
2022-09-09T19:17:27.517Z,23.43
2022-09-09T19:19:57.572Z,23.45
2022-09-09T19:22:27.537Z,23.43
2022-09-09T19:24:59.238Z,23.41
2022-09-09T19:27:29.144Z,23.38
2022-09-09T19:30:01.516Z,23.36
2022-09-09T19:32:52.676Z,23.38
2022-09-09T19:35:21.223Z,23.42
2022-09-09T19:37:51.043Z,23.42
2022-09-09T19:40:22.193Z,23.44
2022-09-09T19:42:54.016Z,23.44
2022-09-09T19:45:27.654Z,23.42
2022-09-09T19:47:57.496Z,23.43
2022-09-09T19:50:28.315Z,23.36
2022-09-09T19:52:58.097Z,23.27
2022-09-09T19:55:28.960Z,23.18
2022-09-09T19:57:58.977Z,23.08
2022-09-09T20:00:31.574Z,22.99
2022-09-09T20:03:18.208Z,22.96
2022-09-09T20:05:49.365Z,22.95
2022-09-09T20:08:19.297Z,22.94
2022-09-09T20:10:57.182Z,22.94
2022-09-09T20:13:27.377Z,22.96
2022-09-09T20:16:05.876Z,22.99
2022-09-09T20:18:37.574Z,23.00
2022-09-09T20:21:09.636Z,23.01
2022-09-09T20:23:40.107Z,23.05
2022-09-09T20:26:12.950Z,23.05
2022-09-09T20:28:44.325Z,23.02
2022-09-09T20:31:19.108Z,22.88
2022-09-09T20:33:50.375Z,22.83
2022-09-09T20:36:21.605Z,22.82
2022-09-09T20:38:53.165Z,22.83
2022-09-09T20:41:24.765Z,22.86
2022-09-09T20:43:56.063Z,22.87
2022-09-09T20:46:30.928Z,22.84
2022-09-09T20:49:03.278Z,22.86
2022-09-09T20:51:34.489Z,22.87
2022-09-09T20:54:06.705Z,22.91
2022-09-09T20:56:39.440Z,22.91
2022-09-09T20:59:10.350Z,22.91
2022-09-09T21:01:43.982Z,22.93
2022-09-09T21:04:13.806Z,22.91
2022-09-09T21:06:43.686Z,22.88
2022-09-09T21:09:13.577Z,22.85
2022-09-09T21:11:43.795Z,22.83
2022-09-09T21:14:13.825Z,22.82
2022-09-09T21:16:46.230Z,22.82
2022-09-09T21:19:16.068Z,22.78
2022-09-09T21:21:46.696Z,22.77
2022-09-09T21:24:31.745Z,22.76
2022-09-09T21:27:01.672Z,22.78
2022-09-09T21:29:31.458Z,22.78
2022-09-09T21:32:03.995Z,22.76
2022-09-09T21:34:36.412Z,22.75
2022-09-09T21:37:06.362Z,22.74
2022-09-09T21:39:36.875Z,22.67
2022-09-09T21:42:07.836Z,22.66
2022-09-09T21:44:37.722Z,22.59
2022-09-09T21:47:10.310Z,22.57
2022-09-09T21:49:40.069Z,22.52
2022-09-09T21:52:09.909Z,22.44
2022-09-09T21:54:40.213Z,22.35
2022-09-09T21:57:09.979Z,22.31
2022-09-09T21:59:40.639Z,22.28
2022-09-09T22:02:14.153Z,22.21
2022-09-09T22:04:44.054Z,22.24
2022-09-09T22:07:16.770Z,22.26
2022-09-09T22:09:46.591Z,22.21
2022-09-09T22:12:16.730Z,22.16
2022-09-09T22:14:46.506Z,22.17
2022-09-09T22:17:18.881Z,22.19
2022-09-09T22:19:49.223Z,22.19
2022-09-09T22:22:18.974Z,22.22
2022-09-09T22:24:49.020Z,22.19
2022-09-09T22:27:19.014Z,22.22
2022-09-09T22:29:48.916Z,22.21
2022-09-09T22:32:21.300Z,22.17
2022-09-09T22:34:51.295Z,22.14
2022-09-09T22:37:23.028Z,22.16
2022-09-09T22:39:52.844Z,22.18
2022-09-09T22:42:22.831Z,22.20
2022-09-09T22:44:52.562Z,22.21
2022-09-09T22:47:25.068Z,22.19
2022-09-09T22:49:55.056Z,22.18
2022-09-09T22:52:25.242Z,22.08
2022-09-09T22:54:55.141Z,22.04
2022-09-09T22:57:24.887Z,22.04
2022-09-09T22:59:55.117Z,22.06
2022-09-09T23:02:28.035Z,22.06
2022-09-09T23:05:00.434Z,22.09
2022-09-09T23:07:30.282Z,22.12
2022-09-09T23:10:00.135Z,22.15
2022-09-09T23:12:30.240Z,22.17
2022-09-09T23:15:00.005Z,22.15
2022-09-09T23:17:34.329Z,22.08
2022-09-09T23:20:04.575Z,22.02
2022-09-09T23:22:36.430Z,22.00
2022-09-09T23:25:07.441Z,22.00
2022-09-09T23:27:38.693Z,22.01
2022-09-09T23:30:11.083Z,22.00
2022-09-09T23:32:47.042Z,22.02
2022-09-09T23:35:17.567Z,21.99
2022-09-09T23:37:48.077Z,21.95
2022-09-09T23:40:18.135Z,21.93
2022-09-09T23:42:48.861Z,21.88
2022-09-09T23:45:18.735Z,21.89
2022-09-09T23:47:51.131Z,21.89
2022-09-09T23:50:21.057Z,21.90
2022-09-09T23:52:52.336Z,21.87
2022-09-09T23:55:23.881Z,21.86
2022-09-09T23:57:55.129Z,21.86
